Time;durP1;ratioP1;P1;durP2;ratioP2;P2;SDS_P1;SDS_P2;PMS_P1;PMS_P2;Temp;Humidity;BMP_temperature;BMP_pressure;BME280_temperature;BME280_humidity;BME280_pressure;Samples;Min_cycle;Max_cycle;Signal;HPM_P1;HPM_P2
2023/12/29 00:01:46;;;;;;;0.28;0.28;;;10.30;88.60;;;;;;5069870;28;20127;-75
2023/12/29 00:04:11;;;;;;;1.38;0.88;;;10.30;88.70;;;;;;5070105;28;20116;-74
2023/12/29 00:06:40;;;;;;;0.10;0.10;;;10.30;88.50;;;;;;5069697;28;20056;-75
2023/12/29 00:09:07;;;;;;;0.10;0.10;;;10.40;88.60;;;;;;5069214;28;20498;-74
2023/12/29 00:11:33;;;;;;;0.90;0.85;;;10.30;88.80;;;;;;5069056;28;20637;-75
2023/12/29 00:13:59;;;;;;;0.65;0.65;;;10.30;88.60;;;;;;5069162;28;20063;-75
2023/12/29 00:16:24;;;;;;;0.10;0.10;;;10.40;88.60;;;;;;5050825;28;20076;-75
2023/12/29 00:18:50;;;;;;;0.00;0.00;;;10.30;88.40;;;;;;5050766;28;20040;-74
2023/12/29 00:21:16;;;;;;;0.00;0.00;;;10.20;88.80;;;;;;5068875;28;20048;-74
2023/12/29 00:23:41;;;;;;;0.38;0.38;;;10.30;88.70;;;;;;5052364;28;20460;-74
2023/12/29 00:26:07;;;;;;;0.00;0.00;;;10.20;88.60;;;;;;5057241;28;20048;-75
2023/12/29 00:28:35;;;;;;;0.00;0.00;;;10.20;88.70;;;;;;5068856;28;20055;-74
2023/12/29 00:31:01;;;;;;;0.80;0.63;;;10.30;88.50;;;;;;5068246;28;20040;-74
2023/12/29 00:33:26;;;;;;;2.47;1.95;;;10.30;88.40;;;;;;5068722;28;20114;-74
2023/12/29 00:35:52;;;;;;;0.00;0.00;;;10.30;88.60;;;;;;5068583;28;20047;-74
2023/12/29 00:38:17;;;;;;;4.75;1.85;;;10.40;88.80;;;;;;5069165;28;20478;-74
2023/12/29 00:40:43;;;;;;;0.30;0.30;;;10.20;88.90;;;;;;5049954;28;20040;-74
2023/12/29 00:43:09;;;;;;;0.15;0.15;;;10.30;89.00;;;;;;5068239;28;20059;-74
2023/12/29 00:45:35;;;;;;;0.00;0.00;;;10.20;89.20;;;;;;5068244;28;20045;-74
2023/12/29 00:48:02;;;;;;;9.75;2.40;;;10.20;89.30;;;;;;5067935;28;20713;-74
2023/12/29 00:50:28;;;;;;;0.15;0.15;;;10.20;89.30;;;;;;5068956;28;20078;-74
2023/12/29 00:52:54;;;;;;;0.10;0.10;;;10.20;89.30;;;;;;5067890;28;20045;-74
2023/12/29 00:55:19;;;;;;;1.13;1.05;;;10.30;89.30;;;;;;5050518;28;20426;-74
2023/12/29 00:57:45;;;;;;;0.15;0.15;;;10.20;89.10;;;;;;5068229;28;20056;-75
2023/12/29 01:00:12;;;;;;;0.10;0.10;;;10.30;89.00;;;;;;5067926;28;20044;-74
2023/12/29 01:02:38;;;;;;;0.10;0.10;;;10.20;89.00;;;;;;5050468;28;20036;-74
2023/12/29 01:05:05;;;;;;;0.10;0.10;;;10.20;89.30;;;;;;5068467;28;20048;-74
2023/12/29 01:07:31;;;;;;;0.00;0.00;;;10.20;89.30;;;;;;5068145;28;20044;-74
2023/12/29 01:09:56;;;;;;;0.00;0.00;;;10.30;89.30;;;;;;5054876;28;20568;-74
2023/12/29 01:12:22;;;;;;;0.00;0.00;;;10.30;89.30;;;;;;5061328;28;20142;-74
2023/12/29 01:14:47;;;;;;;1.60;1.50;;;10.30;89.20;;;;;;5067895;28;20514;-74
2023/12/29 01:17:13;;;;;;;0.55;0.55;;;10.30;89.30;;;;;;5068665;28;20076;-74
2023/12/29 01:19:38;;;;;;;0.20;0.20;;;10.40;89.30;;;;;;5068225;28;20051;-74
2023/12/29 01:22:04;;;;;;;0.13;0.13;;;10.40;89.40;;;;;;5068064;28;20136;-75
2023/12/29 01:24:30;;;;;;;0.20;0.20;;;10.30;89.40;;;;;;5067774;28;20052;-74
2023/12/29 01:26:56;;;;;;;0.32;0.32;;;10.10;89.40;;;;;;5049219;28;20041;-74
2023/12/29 01:29:22;;;;;;;0.20;0.20;;;10.10;89.30;;;;;;5067722;28;20525;-75
2023/12/29 01:31:47;;;;;;;0.10;0.10;;;10.30;89.00;;;;;;5058406;28;20080;-74
2023/12/29 01:34:13;;;;;;;0.00;0.00;;;10.20;88.80;;;;;;5047185;28;20099;-74
2023/12/29 01:36:39;;;;;;;0.00;0.00;;;10.20;87.90;;;;;;5047785;28;20091;-74
2023/12/29 01:39:05;;;;;;;0.35;0.35;;;10.30;87.00;;;;;;5064016;28;20475;-74
2023/12/29 01:41:31;;;;;;;0.00;0.00;;;10.30;85.20;;;;;;5063632;28;20048;-75
2023/12/29 01:43:56;;;;;;;0.00;0.00;;;10.30;84.40;;;;;;5049683;28;20071;-74
2023/12/29 01:46:22;;;;;;;0.03;0.03;;;10.30;84.10;;;;;;5066857;28;20486;-74
2023/12/29 01:48:48;;;;;;;0.10;0.10;;;10.20;83.20;;;;;;5048939;28;20119;-74
2023/12/29 01:51:17;;;;;;;0.00;0.00;;;10.20;83.00;;;;;;5059052;28;20562;-74
2023/12/29 01:53:43;;;;;;;0.00;0.00;;;10.10;82.70;;;;;;5067747;28;20090;-74
2023/12/29 01:56:09;;;;;;;0.00;0.00;;;10.10;82.00;;;;;;5065893;28;20415;-74
2023/12/29 01:58:35;;;;;;;0.00;0.00;;;10.10;81.70;;;;;;5049624;28;20051;-74
2023/12/29 02:01:02;;;;;;;0.10;0.10;;;10.20;81.20;;;;;;5060147;28;20033;-74
2023/12/29 02:03:27;;;;;;;0.00;0.00;;;10.10;80.70;;;;;;5061624;28;20562;-73
2023/12/29 02:05:55;;;;;;;0.55;0.55;;;10.10;80.20;;;;;;5067284;28;20123;-74
2023/12/29 02:08:24;;;;;;;0.60;0.60;;;10.00;80.10;;;;;;5049133;28;20049;-74
2023/12/29 02:10:49;;;;;;;0.00;0.00;;;10.00;80.40;;;;;;5062737;28;20037;-74
2023/12/29 02:13:15;;;;;;;0.00;0.00;;;9.90;80.90;;;;;;5057179;28;20670;-75
2023/12/29 02:15:41;;;;;;;0.00;0.00;;;9.90;81.50;;;;;;5065578;28;20124;-74
2023/12/29 02:18:14;;;;;;;0.00;0.00;;;10.00;82.10;;;;;;5047922;28;20048;-74
2023/12/29 02:20:41;;;;;;;0.00;0.00;;;10.00;82.20;;;;;;5047510;28;20414;-74
2023/12/29 02:23:06;;;;;;;0.52;0.40;;;10.00;82.20;;;;;;5058660;28;20146;-74
2023/12/29 02:25:33;;;;;;;0.10;0.10;;;10.10;82.10;;;;;;5067528;28;20060;-74
2023/12/29 02:28:07;;;;;;;0.00;0.00;;;10.10;82.80;;;;;;5067375;28;20045;-74
2023/12/29 02:30:44;;;;;;;0.00;0.00;;;10.10;83.60;;;;;;5060552;28;20233;-74
2023/12/29 02:33:21;;;;;;;0.00;0.00;;;10.00;84.70;;;;;;5064054;28;20598;-74
2023/12/29 02:35:51;;;;;;;26.67;3.10;;;10.00;85.40;;;;;;5067156;28;20051;-74
2023/12/29 02:38:16;;;;;;;1.02;0.88;;;10.00;86.10;;;;;;5049283;28;20154;-74
2023/12/29 02:40:42;;;;;;;0.00;0.00;;;10.00;86.30;;;;;;5054684;28;20589;-74
2023/12/29 02:43:11;;;;;;;0.08;0.08;;;10.10;86.30;;;;;;5049400;28;20051;-74
2023/12/29 02:45:37;;;;;;;0.80;0.30;;;10.10;86.50;;;;;;5067626;28;20449;-74
2023/12/29 02:48:03;;;;;;;0.10;0.10;;;10.20;86.30;;;;;;5066500;28;20056;-75
2023/12/29 02:50:28;;;;;;;0.00;0.00;;;10.20;86.40;;;;;;5048828;28;20040;-75
2023/12/29 02:52:54;;;;;;;1.98;1.55;;;10.20;86.70;;;;;;5067023;28;20064;-74
2023/12/29 02:55:20;;;;;;;1.00;0.93;;;10.10;87.00;;;;;;5068431;28;20525;-74
2023/12/29 02:57:45;;;;;;;0.00;0.00;;;10.20;87.30;;;;;;5070178;28;20053;-74
2023/12/29 03:00:11;;;;;;;0.00;0.00;;;10.20;87.60;;;;;;5053142;28;20036;-74
2023/12/29 03:02:37;;;;;;;1.48;1.38;;;10.30;87.50;;;;;;5053041;28;20471;-75
2023/12/29 03:05:03;;;;;;;0.55;0.55;;;10.30;87.20;;;;;;5070893;28;20041;-75
2023/12/29 03:07:28;;;;;;;3.08;0.98;;;10.30;87.20;;;;;;5070348;28;20102;-74
2023/12/29 03:09:55;;;;;;;4.72;2.92;;;10.30;86.80;;;;;;5070366;28;20040;-75
2023/12/29 03:12:20;;;;;;;0.55;0.55;;;10.30;86.10;;;;;;5070709;28;20074;-74
2023/12/29 03:14:47;;;;;;;0.28;0.28;;;10.30;84.90;;;;;;5069409;28;20557;-75
2023/12/29 03:17:13;;;;;;;3.03;1.35;;;10.30;84.10;;;;;;5070704;28;20041;-75
2023/12/29 03:19:38;;;;;;;1.00;0.82;;;10.20;82.30;;;;;;5069646;28;20063;-74
2023/12/29 03:22:04;;;;;;;0.65;0.65;;;10.30;81.60;;;;;;5051476;28;20041;-75
2023/12/29 03:24:30;;;;;;;3.85;1.98;;;10.30;80.40;;;;;;5064752;28;20053;-74
2023/12/29 03:26:55;;;;;;;5.45;3.70;;;10.20;80.70;;;;;;5070418;28;20055;-74
2023/12/29 03:29:21;;;;;;;0.00;0.00;;;10.20;80.90;;;;;;5059955;28;20044;-74
2023/12/29 03:31:46;;;;;;;0.00;0.00;;;10.10;81.70;;;;;;5069059;28;20105;-74
2023/12/29 03:34:12;;;;;;;0.00;0.00;;;10.10;82.20;;;;;;5048172;28;20048;-75
2023/12/29 03:36:38;;;;;;;0.00;0.00;;;10.10;82.10;;;;;;5065730;28;20124;-74
2023/12/29 03:39:04;;;;;;;0.00;0.00;;;10.00;82.50;;;;;;5063543;28;20072;-75
2023/12/29 03:41:30;;;;;;;0.10;0.10;;;10.10;82.60;;;;;;5068237;28;20125;-74
2023/12/29 03:43:56;;;;;;;0.15;0.15;;;10.00;82.20;;;;;;5069555;28;20103;-74
2023/12/29 03:46:22;;;;;;;0.00;0.00;;;10.00;82.50;;;;;;5069984;28;20123;-74
2023/12/29 03:48:48;;;;;;;0.00;0.00;;;10.10;82.10;;;;;;5068248;28;20040;-73
2023/12/29 03:51:15;;;;;;;0.10;0.10;;;10.00;81.20;;;;;;5069178;28;20055;-75
2023/12/29 03:53:41;;;;;;;2.35;1.38;;;10.00;81.10;;;;;;5052419;28;20068;-74
2023/12/29 03:56:08;;;;;;;0.30;0.30;;;10.00;81.20;;;;;;5067270;28;20028;-74
2023/12/29 03:58:37;;;;;;;0.30;0.30;;;10.00;81.00;;;;;;5051513;28;20487;-74
2023/12/29 04:01:02;;;;;;;0.00;0.00;;;10.00;81.20;;;;;;5068687;28;20397;-74
2023/12/29 04:03:28;;;;;;;0.38;0.35;;;10.00;81.30;;;;;;5068809;28;20037;-74
2023/12/29 04:05:54;;;;;;;0.00;0.00;;;9.90;81.20;;;;;;5069447;28;20041;-75
2023/12/29 04:08:19;;;;;;;0.47;0.47;;;9.90;81.10;;;;;;5069486;28;20040;-75
2023/12/29 04:10:45;;;;;;;0.13;0.13;;;9.90;81.20;;;;;;5051260;28;20040;-74
2023/12/29 04:13:11;;;;;;;0.05;0.05;;;9.90;81.30;;;;;;5069795;28;20402;-73
2023/12/29 04:15:36;;;;;;;31.77;0.90;;;9.90;80.90;;;;;;5058845;28;20073;-74
2023/12/29 04:18:02;;;;;;;0.93;0.90;;;9.90;80.40;;;;;;5049583;28;20136;-74
2023/12/29 04:20:28;;;;;;;0.10;0.10;;;10.00;80.70;;;;;;5064618;28;20051;-74
2023/12/29 04:22:55;;;;;;;0.10;0.10;;;9.90;80.30;;;;;;5069658;28;20457;-74
2023/12/29 04:25:20;;;;;;;0.40;0.40;;;9.90;79.80;;;;;;5051131;28;20529;-74
2023/12/29 04:27:46;;;;;;;0.20;0.20;;;9.80;79.50;;;;;;5068820;28;20037;-74
2023/12/29 04:30:12;;;;;;;0.57;0.57;;;9.90;79.30;;;;;;5062641;28;20526;-74
2023/12/29 04:32:37;;;;;;;0.00;0.00;;;9.80;78.80;;;;;;5049483;28;20041;-73
2023/12/29 04:35:03;;;;;;;0.00;0.00;;;9.90;79.30;;;;;;5049548;28;20076;-74
2023/12/29 04:37:29;;;;;;;1.05;1.05;;;9.90;79.50;;;;;;5057743;28;20067;-74
2023/12/29 04:39:55;;;;;;;0.35;0.35;;;9.90;79.60;;;;;;5069032;28;20036;-74
2023/12/29 04:42:20;;;;;;;0.00;0.00;;;9.90;79.70;;;;;;5068765;28;20072;-74
2023/12/29 04:44:46;;;;;;;0.00;0.00;;;9.90;79.40;;;;;;5068975;28;20460;-74
2023/12/29 04:47:11;;;;;;;0.35;0.35;;;10.00;79.50;;;;;;5068190;28;20044;-75
2023/12/29 04:49:37;;;;;;;1.45;1.35;;;9.90;79.80;;;;;;5068987;28;20044;-74
2023/12/29 04:52:03;;;;;;;0.00;0.00;;;10.00;79.80;;;;;;5068295;28;20044;-74
2023/12/29 04:54:29;;;;;;;2.80;1.38;;;10.10;79.80;;;;;;5050278;28;20053;-73
2023/12/29 04:56:54;;;;;;;0.00;0.00;;;10.00;79.30;;;;;;5050139;28;20047;-74
2023/12/29 04:59:20;;;;;;;0.10;0.10;;;9.90;79.70;;;;;;5064732;28;20057;-74
2023/12/29 05:01:46;;;;;;;0.00;0.00;;;10.00;79.80;;;;;;5049232;28;20446;-74
2023/12/29 05:04:11;;;;;;;0.20;0.20;;;10.00;79.90;;;;;;5047666;28;20044;-74
2023/12/29 05:06:37;;;;;;;0.00;0.00;;;9.90;79.90;;;;;;5064746;28;20112;-74
2023/12/29 05:09:02;;;;;;;0.10;0.10;;;9.90;80.10;;;;;;5068061;28;20048;-74
2023/12/29 05:11:28;;;;;;;4.78;1.13;;;10.00;80.00;;;;;;5065115;28;20561;-74
2023/12/29 05:13:54;;;;;;;0.30;0.30;;;9.90;80.20;;;;;;5050163;28;20156;-74
2023/12/29 05:16:20;;;;;;;0.05;0.05;;;10.00;80.00;;;;;;5049940;28;20084;-73
2023/12/29 05:18:46;;;;;;;0.60;0.60;;;10.00;80.20;;;;;;5054131;28;20094;-74
2023/12/29 05:21:16;;;;;;;0.08;0.08;;;9.90;80.30;;;;;;5050487;28;20040;-74
2023/12/29 05:23:43;;;;;;;0.68;0.68;;;9.80;80.40;;;;;;5051469;28;20052;-74
2023/12/29 05:26:08;;;;;;;0.00;0.00;;;9.90;80.60;;;;;;5050176;28;20090;-74
2023/12/29 05:28:34;;;;;;;0.00;0.00;;;9.90;80.80;;;;;;5061194;28;20044;-74
2023/12/29 05:31:03;;;;;;;2.40;1.95;;;9.90;80.70;;;;;;5068140;28;20098;-74
2023/12/29 05:33:29;;;;;;;3.45;2.58;;;10.00;80.80;;;;;;5066071;28;20057;-74
2023/12/29 05:35:54;;;;;;;0.00;0.00;;;9.90;81.00;;;;;;5067045;28;20086;-74
2023/12/29 05:38:20;;;;;;;0.00;0.00;;;10.00;81.00;;;;;;5054942;28;20846;-74
2023/12/29 05:40:46;;;;;;;0.00;0.00;;;9.90;81.50;;;;;;5062242;28;20033;-74
2023/12/29 05:43:11;;;;;;;1.75;1.20;;;10.00;81.50;;;;;;5066734;28;20098;-74
2023/12/29 05:45:37;;;;;;;0.52;0.52;;;9.90;81.90;;;;;;5066267;28;20036;-74
2023/12/29 05:48:03;;;;;;;0.20;0.20;;;9.90;82.30;;;;;;5067163;28;20411;-74
2023/12/29 05:50:28;;;;;;;0.10;0.10;;;9.90;82.30;;;;;;5055182;28;20048;-74
2023/12/29 05:52:54;;;;;;;7.55;2.28;;;9.90;82.50;;;;;;5046743;28;20607;-74
2023/12/29 05:55:19;;;;;;;0.88;0.88;;;10.00;82.50;;;;;;5063211;28;20048;-74
2023/12/29 05:57:45;;;;;;;0.00;0.00;;;10.00;82.70;;;;;;5065624;28;20552;-74
2023/12/29 06:00:14;;;;;;;0.43;0.43;;;10.00;83.00;;;;;;5062346;28;20090;-74
2023/12/29 06:02:43;;;;;;;0.00;0.00;;;10.10;83.10;;;;;;5049260;28;20423;-74
2023/12/29 06:05:10;;;;;;;0.60;0.60;;;10.10;83.30;;;;;;5047957;28;20045;-74
2023/12/29 06:07:36;;;;;;;0.00;0.00;;;10.00;83.40;;;;;;5047801;28;20064;-74
2023/12/29 06:10:02;;;;;;;0.00;0.00;;;10.10;83.00;;;;;;5047906;28;20906;-74
2023/12/29 06:12:28;;;;;;;0.08;0.08;;;10.10;83.50;;;;;;5065670;28;20044;-73
2023/12/29 06:14:53;;;;;;;1.27;1.17;;;10.00;84.20;;;;;;5048808;28;20095;-74
2023/12/29 06:17:19;;;;;;;0.00;0.00;;;10.00;84.20;;;;;;5063400;28;20127;-74
2023/12/29 06:19:44;;;;;;;0.03;0.03;;;10.00;84.30;;;;;;5066975;28;20033;-74
2023/12/29 06:22:11;;;;;;;0.55;0.55;;;10.00;84.30;;;;;;5051541;28;20128;-74
2023/12/29 06:24:40;;;;;;;0.00;0.00;;;9.90;84.30;;;;;;5065772;28;20045;-73
2023/12/29 06:27:09;;;;;;;1.33;1.23;;;9.90;84.60;;;;;;5062438;28;20033;-72
2023/12/29 06:29:34;;;;;;;0.00;0.00;;;9.90;84.60;;;;;;5068706;28;20045;-72
2023/12/29 06:32:00;;;;;;;3.97;2.80;;;9.80;84.50;;;;;;5059694;28;20091;-73
2023/12/29 06:34:26;;;;;;;0.30;0.30;;;9.80;84.50;;;;;;5066103;28;20044;-71
2023/12/29 06:36:52;;;;;;;0.00;0.00;;;9.80;84.30;;;;;;5067635;28;20134;-73
2023/12/29 06:39:17;;;;;;;0.00;0.00;;;9.90;83.90;;;;;;5069797;28;20040;-72
2023/12/29 06:41:43;;;;;;;2.08;1.50;;;9.90;83.50;;;;;;5066537;28;20095;-72
2023/12/29 06:44:08;;;;;;;0.00;0.00;;;9.90;83.20;;;;;;5069343;28;20036;-73
2023/12/29 06:46:36;;;;;;;0.10;0.10;;;10.00;83.40;;;;;;5069313;28;20040;-72
2023/12/29 06:49:02;;;;;;;2.60;1.65;;;9.90;83.20;;;;;;5070091;28;20049;-73
2023/12/29 06:51:28;;;;;;;2.17;1.40;;;9.90;83.40;;;;;;5067433;28;20060;-73
2023/12/29 06:53:54;;;;;;;0.10;0.10;;;9.90;83.40;;;;;;5069001;28;20537;-72
2023/12/29 06:56:20;;;;;;;1.38;1.30;;;10.00;83.30;;;;;;5067888;28;20072;-73
2023/12/29 06:58:46;;;;;;;0.00;0.00;;;10.00;83.10;;;;;;5069231;28;20041;-74
2023/12/29 07:01:11;;;;;;;0.00;0.00;;;10.00;83.40;;;;;;5069391;28;20052;-73
2023/12/29 07:03:37;;;;;;;0.13;0.13;;;9.90;83.70;;;;;;5068700;28;20543;-72
2023/12/29 07:06:03;;;;;;;0.38;0.38;;;9.90;84.10;;;;;;5063974;28;20041;-73
2023/12/29 07:08:29;;;;;;;1.55;0.75;;;9.90;84.20;;;;;;5063148;28;20032;-72
2023/12/29 07:10:54;;;;;;;0.00;0.00;;;9.90;84.00;;;;;;5068595;28;20109;-73
2023/12/29 07:13:20;;;;;;;0.10;0.10;;;10.00;83.60;;;;;;5066595;28;20057;-72
2023/12/29 07:15:48;;;;;;;0.00;0.00;;;9.90;83.50;;;;;;5057694;28;20123;-73
2023/12/29 07:18:14;;;;;;;0.00;0.00;;;10.00;83.10;;;;;;5069137;28;20045;-73
2023/12/29 07:20:41;;;;;;;0.00;0.00;;;10.10;82.90;;;;;;5068747;28;20068;-72
2023/12/29 07:23:07;;;;;;;0.63;0.63;;;10.00;82.90;;;;;;5065988;28;20093;-73
2023/12/29 07:25:32;;;;;;;1.40;1.30;;;10.10;83.10;;;;;;5066215;28;20052;-73
2023/12/29 07:27:58;;;;;;;0.47;0.47;;;10.10;83.10;;;;;;5062559;28;20156;-73
2023/12/29 07:30:23;;;;;;;0.85;0.85;;;10.00;83.20;;;;;;5069107;28;20052;-73
2023/12/29 07:32:49;;;;;;;1.65;1.55;;;9.90;83.40;;;;;;5067051;28;20060;-73
2023/12/29 07:35:19;;;;;;;0.00;0.00;;;10.00;83.40;;;;;;5068604;28;20119;-73
2023/12/29 07:37:45;;;;;;;0.00;0.00;;;9.90;83.20;;;;;;5062294;28;20385;-70
2023/12/29 07:40:12;;;;;;;0.00;0.00;;;10.00;83.20;;;;;;5064288;28;20131;-70
2023/12/29 07:42:39;;;;;;;0.22;0.22;;;9.90;83.40;;;;;;5062061;28;20040;-70
2023/12/29 07:45:05;;;;;;;0.25;0.25;;;10.00;83.00;;;;;;5058580;28;20101;-71
2023/12/29 07:47:31;;;;;;;0.40;0.40;;;9.90;83.10;;;;;;5067860;28;20032;-69
2023/12/29 07:49:57;;;;;;;0.45;0.45;;;10.00;82.70;;;;;;5064135;28;20090;-70
2023/12/29 07:52:23;;;;;;;0.00;0.00;;;10.00;82.30;;;;;;5066730;28;20044;-69
2023/12/29 07:54:49;;;;;;;0.38;0.38;;;10.00;81.70;;;;;;5067281;28;20056;-71
2023/12/29 07:57:15;;;;;;;0.00;0.00;;;9.90;81.90;;;;;;5066942;28;20041;-71
2023/12/29 07:59:40;;;;;;;0.00;0.00;;;9.90;82.40;;;;;;5053750;28;20056;-71
2023/12/29 08:02:06;;;;;;;0.00;0.00;;;9.90;82.60;;;;;;5064146;28;20043;-73
2023/12/29 08:04:32;;;;;;;0.10;0.10;;;9.90;82.60;;;;;;5062732;28;20048;-72
2023/12/29 08:06:58;;;;;;;0.15;0.15;;;9.90;82.20;;;;;;5065412;28;20047;-71
2023/12/29 08:09:23;;;;;;;0.20;0.20;;;9.90;82.20;;;;;;5065423;28;20472;-72
2023/12/29 08:11:50;;;;;;;0.00;0.00;;;10.10;82.30;;;;;;5066791;28;20048;-73
2023/12/29 08:14:15;;;;;;;0.00;0.00;;;10.00;82.70;;;;;;5057529;28;20045;-74
2023/12/29 08:16:41;;;;;;;0.15;0.15;;;10.00;82.90;;;;;;5061043;28;20057;-72
2023/12/29 08:19:07;;;;;;;7.15;2.92;;;9.90;83.10;;;;;;5050147;28;20151;-72
2023/12/29 08:21:33;;;;;;;0.20;0.20;;;9.90;83.20;;;;;;5068069;28;20056;-72
2023/12/29 08:23:59;;;;;;;0.00;0.00;;;9.90;83.10;;;;;;5048869;28;20040;-72
2023/12/29 08:26:25;;;;;;;0.00;0.00;;;10.00;82.60;;;;;;5047255;28;20099;-72
2023/12/29 08:28:51;;;;;;;0.00;0.00;;;9.90;82.50;;;;;;5063407;28;20045;-71
2023/12/29 08:31:19;;;;;;;0.00;0.00;;;9.90;82.60;;;;;;5066345;28;20689;-71
2023/12/29 08:33:44;;;;;;;0.10;0.10;;;9.90;82.80;;;;;;5067284;28;20049;-71
2023/12/29 08:36:12;;;;;;;0.55;0.55;;;9.90;82.90;;;;;;5049510;28;20453;-72
2023/12/29 08:38:38;;;;;;;0.00;0.00;;;9.80;82.90;;;;;;5061703;28;20460;-72
2023/12/29 08:41:04;;;;;;;0.00;0.00;;;9.70;82.90;;;;;;5046676;28;20101;-71
2023/12/29 08:43:30;;;;;;;24.73;1.55;;;9.70;83.10;;;;;;5063892;28;20045;-72
2023/12/29 08:45:56;;;;;;;0.00;0.00;;;9.70;83.00;;;;;;5065341;28;20058;-71
2023/12/29 08:48:22;;;;;;;0.93;0.93;;;9.70;83.60;;;;;;5066388;28;20433;-72
2023/12/29 08:50:49;;;;;;;5.82;2.83;;;9.70;84.00;;;;;;5063175;28;20481;-72
2023/12/29 08:53:15;;;;;;;0.00;0.00;;;9.70;84.40;;;;;;5065918;28;20659;-72
2023/12/29 08:55:41;;;;;;;2.20;2.05;;;9.70;84.80;;;;;;5060014;28;20754;-72
2023/12/29 08:58:08;;;;;;;0.00;0.00;;;9.70;85.30;;;;;;5062827;28;20071;-72
2023/12/29 09:00:33;;;;;;;0.10;0.10;;;9.70;85.40;;;;;;5050188;28;20059;-72
2023/12/29 09:02:59;;;;;;;2.83;2.08;;;9.70;85.60;;;;;;5065363;28;20036;-72
2023/12/29 09:05:25;;;;;;;0.00;0.00;;;9.80;85.70;;;;;;5067147;28;20080;-72
2023/12/29 09:07:51;;;;;;;1.65;0.73;;;9.80;85.50;;;;;;5049099;28;20048;-72
2023/12/29 09:10:17;;;;;;;0.03;0.03;;;9.80;85.30;;;;;;5066206;28;20058;-72
2023/12/29 09:12:43;;;;;;;0.00;0.00;;;9.90;84.80;;;;;;5062887;28;20048;-72
2023/12/29 09:15:10;;;;;;;0.10;0.10;;;9.90;84.60;;;;;;5056276;28;20092;-71
2023/12/29 09:17:35;;;;;;;2.33;2.13;;;9.90;84.60;;;;;;5059637;28;20872;-73
2023/12/29 09:20:02;;;;;;;0.00;0.00;;;10.00;84.20;;;;;;5049787;28;20131;-73
2023/12/29 09:22:28;;;;;;;0.30;0.30;;;10.00;83.90;;;;;;5062035;28;20040;-72
2023/12/29 09:24:55;;;;;;;0.00;0.00;;;10.00;83.70;;;;;;5065557;28;20055;-74
2023/12/29 09:27:21;;;;;;;0.10;0.10;;;10.00;84.00;;;;;;5041026;28;20076;-72
2023/12/29 09:29:47;;;;;;;0.00;0.00;;;10.00;83.70;;;;;;5060785;28;20037;-72
2023/12/29 09:32:13;;;;;;;0.10;0.10;;;10.10;83.50;;;;;;5054678;28;20408;-71
2023/12/29 09:34:38;;;;;;;3.33;1.42;;;10.10;83.40;;;;;;5062052;28;20036;-71
2023/12/29 09:37:04;;;;;;;0.80;0.80;;;10.10;83.60;;;;;;5044364;28;20044;-72
2023/12/29 09:39:31;;;;;;;0.00;0.00;;;10.10;83.20;;;;;;5060744;28;20045;-72
2023/12/29 09:42:00;;;;;;;0.00;0.00;;;10.10;83.20;;;;;;5059064;28;20045;-72
2023/12/29 09:44:28;;;;;;;0.03;0.03;;;10.20;83.10;;;;;;5066046;28;20086;-71
2023/12/29 09:46:54;;;;;;;0.28;0.28;;;10.10;82.80;;;;;;5066699;28;20056;-71
2023/12/29 09:49:20;;;;;;;7.13;1.38;;;10.10;82.60;;;;;;5067116;28;20150;-71
2023/12/29 09:51:48;;;;;;;0.00;0.00;;;10.10;82.40;;;;;;5065906;28;20073;-71
2023/12/29 09:54:15;;;;;;;1.17;0.90;;;10.20;82.10;;;;;;5065890;28;20056;-71
2023/12/29 09:56:41;;;;;;;0.00;0.00;;;10.20;81.60;;;;;;5064626;28;20441;-71
2023/12/29 09:59:11;;;;;;;22.52;1.65;;;10.20;80.90;;;;;;5066746;28;20041;-71
2023/12/29 10:01:38;;;;;;;0.00;0.00;;;10.20;80.60;;;;;;5066307;28;20040;-71
2023/12/29 10:04:04;;;;;;;0.82;0.82;;;10.10;80.80;;;;;;5066625;28;20119;-71
2023/12/29 10:06:35;;;;;;;0.00;0.00;;;10.10;81.00;;;;;;5066087;28;20451;-71
2023/12/29 10:09:04;;;;;;;0.10;0.10;;;10.00;80.70;;;;;;5066346;28;20487;-72
2023/12/29 10:11:34;;;;;;;0.43;0.43;;;10.00;80.10;;;;;;5059283;28;20868;-72
2023/12/29 10:14:03;;;;;;;0.00;0.00;;;10.00;80.40;;;;;;5046740;28;20095;-72
2023/12/29 10:16:38;;;;;;;0.00;0.00;;;10.00;80.40;;;;;;5046973;28;20041;-71
2023/12/29 10:19:25;;;;;;;1.65;0.65;;;9.90;80.60;;;;;;5045438;28;20045;-71
2023/12/29 10:22:02;;;;;;;0.00;0.00;;;9.80;80.60;;;;;;5062759;28;20079;-72
2023/12/29 10:24:28;;;;;;;0.00;0.00;;;9.80;79.00;;;;;;5066385;28;20052;-71
2023/12/29 10:26:55;;;;;;;0.03;0.03;;;9.80;75.70;;;;;;5066316;28;20562;-71
2023/12/29 10:29:21;;;;;;;0.03;0.03;;;9.80;74.70;;;;;;5052788;28;20045;-71
2023/12/29 10:31:47;;;;;;;0.00;0.00;;;9.80;73.70;;;;;;5046512;28;20048;-70
2023/12/29 10:34:34;;;;;;;0.00;0.00;;;9.80;73.80;;;;;;5064801;28;20044;-71
2023/12/29 10:37:08;;;;;;;0.32;0.32;;;9.70;74.20;;;;;;5056283;28;20478;-72
2023/12/29 10:39:36;;;;;;;0.05;0.05;;;9.70;74.50;;;;;;5046641;28;20072;-72
2023/12/29 10:42:09;;;;;;;0.00;0.00;;;9.60;76.10;;;;;;5059432;28;20050;-72
2023/12/29 10:44:35;;;;;;;0.10;0.10;;;9.60;78.90;;;;;;5065842;28;20417;-72
2023/12/29 10:47:11;;;;;;;5.18;4.20;;;9.40;79.60;;;;;;5066660;28;20183;-73
2023/12/29 10:49:37;;;;;;;0.10;0.10;;;9.40;80.10;;;;;;5075082;28;20090;-69
2023/12/29 10:52:16;;;;;;;0.10;0.10;;;9.30;80.90;;;;;;5046173;28;20139;-74
2023/12/29 10:54:43;;;;;;;0.00;0.00;;;9.30;81.30;;;;;;5045517;28;20053;-75
2023/12/29 10:57:13;;;;;;;0.43;0.43;;;9.30;81.70;;;;;;5046424;28;20048;-74
2023/12/29 10:59:39;;;;;;;1.10;0.82;;;9.30;82.30;;;;;;5061362;28;20124;-74
2023/12/29 11:02:05;;;;;;;0.00;0.00;;;9.20;83.10;;;;;;5060102;28;20040;-74
2023/12/29 11:04:31;;;;;;;0.10;0.10;;;9.30;83.40;;;;;;5062624;28;20057;-74
2023/12/29 11:06:56;;;;;;;1.38;1.27;;;9.50;82.90;;;;;;5050876;28;20040;-72
2023/12/29 11:09:34;;;;;;;1.67;1.55;;;9.60;80.10;;;;;;5060984;28;20521;-71
2023/12/29 11:12:02;;;;;;;0.00;0.00;;;9.70;79.60;;;;;;5062355;28;20569;-70
2023/12/29 11:14:31;;;;;;;0.00;0.00;;;9.70;78.70;;;;;;5046878;28;20056;-71
2023/12/29 11:16:58;;;;;;;1.08;0.80;;;9.70;78.30;;;;;;5068742;28;20406;-71
2023/12/29 11:19:24;;;;;;;0.00;0.00;;;9.60;79.10;;;;;;5064610;28;20052;-70
2023/12/29 11:21:55;;;;;;;1.95;1.50;;;9.60;78.30;;;;;;5062169;28;20048;-71
2023/12/29 11:24:22;;;;;;;3.83;1.65;;;9.70;77.50;;;;;;5065452;28;20049;-70
2023/12/29 11:26:49;;;;;;;0.00;0.00;;;9.70;77.00;;;;;;5062439;28;20041;-70
2023/12/29 11:29:16;;;;;;;0.10;0.10;;;9.60;76.40;;;;;;5063577;28;20045;-70
2023/12/29 11:31:45;;;;;;;0.00;0.00;;;9.60;76.90;;;;;;5064674;28;21314;-70
2023/12/29 11:34:25;;;;;;;0.00;0.00;;;9.60;76.70;;;;;;5068193;28;20502;-70
2023/12/29 11:36:56;;;;;;;0.75;0.75;;;9.50;76.70;;;;;;5063377;28;20033;-71
2023/12/29 11:39:32;;;;;;;0.00;0.00;;;9.50;76.20;;;;;;5062135;28;20491;-70
2023/12/29 11:42:15;;;;;;;0.00;0.00;;;9.50;76.50;;;;;;5065731;28;20541;-70
2023/12/29 11:44:41;;;;;;;0.08;0.08;;;9.60;76.20;;;;;;5068640;28;20430;-71
2023/12/29 11:47:37;;;;;;;0.03;0.03;;;9.50;75.30;;;;;;5067124;28;20036;-71
2023/12/29 11:50:03;;;;;;;0.10;0.10;;;9.40;75.20;;;;;;5061553;28;20033;-70
2023/12/29 11:52:40;;;;;;;0.00;0.00;;;9.40;75.30;;;;;;5067459;28;20090;-71
2023/12/29 11:55:14;;;;;;;0.25;0.25;;;9.40;75.50;;;;;;5068481;28;20036;-70
2023/12/29 11:57:41;;;;;;;0.10;0.10;;;9.30;75.90;;;;;;5049574;28;20070;-71
2023/12/29 12:00:07;;;;;;;2.72;1.45;;;9.30;76.40;;;;;;5066364;28;20044;-72
2023/12/29 12:02:33;;;;;;;0.00;0.00;;;9.20;76.90;;;;;;5065363;28;20064;-71
2023/12/29 12:04:59;;;;;;;0.00;0.00;;;9.20;76.20;;;;;;5050923;28;20040;-71
2023/12/29 12:07:28;;;;;;;0.10;0.10;;;9.20;76.30;;;;;;5068259;28;20040;-71
2023/12/29 12:10:23;;;;;;;0.00;0.00;;;9.20;75.90;;;;;;5062659;28;20040;-71
2023/12/29 12:12:51;;;;;;;0.20;0.20;;;9.10;75.70;;;;;;5059832;28;20056;-71
2023/12/29 12:15:31;;;;;;;0.00;0.00;;;9.10;75.60;;;;;;5048725;28;20080;-71
2023/12/29 12:18:07;;;;;;;0.88;0.85;;;9.00;75.40;;;;;;5067074;28;20039;-71
2023/12/29 12:20:34;;;;;;;0.00;0.00;;;9.00;75.20;;;;;;5059366;28;20080;-71
2023/12/29 12:23:12;;;;;;;0.00;0.00;;;9.00;75.00;;;;;;5066961;28;20123;-71
2023/12/29 12:25:39;;;;;;;0.00;0.00;;;9.00;75.10;;;;;;5067798;28;20131;-71
2023/12/29 12:28:06;;;;;;;0.73;0.73;;;8.90;75.20;;;;;;5067330;28;20142;-71
2023/12/29 12:30:34;;;;;;;0.00;0.00;;;8.80;75.70;;;;;;5044357;28;20044;-70
2023/12/29 12:33:02;;;;;;;0.20;0.20;;;8.90;75.90;;;;;;5063330;28;20029;-70
2023/12/29 12:35:28;;;;;;;0.15;0.15;;;8.90;76.00;;;;;;5060077;28;20534;-70
2023/12/29 12:38:17;;;;;;;0.10;0.10;;;8.90;75.90;;;;;;5053138;28;20485;-70
2023/12/29 12:40:42;;;;;;;0.00;0.00;;;9.00;75.90;;;;;;5057280;28;20063;-70
2023/12/29 12:43:13;;;;;;;0.10;0.10;;;9.00;75.50;;;;;;5059281;28;20041;-71
2023/12/29 12:45:59;;;;;;;1.27;1.23;;;9.10;75.70;;;;;;5062365;28;20052;-71
2023/12/29 12:48:41;;;;;;;0.00;0.00;;;9.10;75.70;;;;;;5059908;28;20051;-70
2023/12/29 12:51:07;;;;;;;0.00;0.00;;;9.10;75.80;;;;;;5063515;28;20064;-70